sensor_id;sensor_type;location;lat;lon;timestamp;pressure;altitude;pressure_sealevel;temperature;humidity
48652;BME280;34442;52.362;-1.302;2023-06-22T00:01:58;100466.78;;;19.69;100.00
48652;BME280;34442;52.362;-1.302;2023-06-22T00:04:24;100472.78;;;19.71;100.00
48652;BME280;34442;52.362;-1.302;2023-06-22T00:06:50;100472.50;;;19.67;100.00
48652;BME280;34442;52.362;-1.302;2023-06-22T00:09:15;100473.28;;;19.63;100.00
48652;BME280;34442;52.362;-1.302;2023-06-22T00:11:41;100472.47;;;19.62;100.00
48652;BME280;34442;52.362;-1.302;2023-06-22T00:14:06;100470.56;;;19.63;100.00
48652;BME280;34442;52.362;-1.302;2023-06-22T00:16:32;100470.31;;;19.64;100.00
48652;BME280;34442;52.362;-1.302;2023-06-22T00:18:58;100473.56;;;19.61;100.00
48652;BME280;34442;52.362;-1.302;2023-06-22T00:21:29;100474.91;;;19.58;100.00
48652;BME280;34442;52.362;-1.302;2023-06-22T00:23:54;100481.69;;;19.56;100.00
48652;BME280;34442;52.362;-1.302;2023-06-22T00:26:21;100481.97;;;19.54;100.00
48652;BME280;34442;52.362;-1.302;2023-06-22T00:28:47;100485.72;;;19.48;100.00
48652;BME280;34442;52.362;-1.302;2023-06-22T00:31:13;100488.44;;;19.48;100.00
48652;BME280;34442;52.362;-1.302;2023-06-22T00:33:38;100489.84;;;19.51;100.00
48652;BME280;34442;52.362;-1.302;2023-06-22T00:36:04;100483.28;;;19.52;100.00
48652;BME280;34442;52.362;-1.302;2023-06-22T00:38:30;100481.09;;;19.49;100.00
48652;BME280;34442;52.362;-1.302;2023-06-22T00:40:56;100481.59;;;19.46;100.00
48652;BME280;34442;52.362;-1.302;2023-06-22T00:43:21;100478.84;;;19.41;100.00
48652;BME280;34442;52.362;-1.302;2023-06-22T00:45:47;100483.78;;;19.44;100.00
48652;BME280;34442;52.362;-1.302;2023-06-22T00:48:13;100488.16;;;19.45;100.00
48652;BME280;34442;52.362;-1.302;2023-06-22T00:50:40;100490.34;;;19.43;100.00
48652;BME280;34442;52.362;-1.302;2023-06-22T00:53:07;100490.34;;;19.43;100.00
48652;BME280;34442;52.362;-1.302;2023-06-22T00:55:35;100495.22;;;19.41;100.00
48652;BME280;34442;52.362;-1.302;2023-06-22T00:58:03;100501.75;;;19.40;100.00
48652;BME280;34442;52.362;-1.302;2023-06-22T01:00:31;100498.22;;;19.39;100.00
48652;BME280;34442;52.362;-1.302;2023-06-22T01:02:57;100500.41;;;19.42;100.00
48652;BME280;34442;52.362;-1.302;2023-06-22T01:05:24;100491.44;;;19.47;100.00
48652;BME280;34442;52.362;-1.302;2023-06-22T01:10:21;100483.50;;;19.45;100.00
48652;BME280;34442;52.362;-1.302;2023-06-22T01:12:55;100487.91;;;19.46;100.00
48652;BME280;34442;52.362;-1.302;2023-06-22T01:15:48;100497.44;;;19.49;100.00
48652;BME280;34442;52.362;-1.302;2023-06-22T01:18:17;100496.91;;;19.47;100.00
48652;BME280;34442;52.362;-1.302;2023-06-22T01:20:43;100506.69;;;19.43;100.00
48652;BME280;34442;52.362;-1.302;2023-06-22T01:23:33;100514.31;;;19.46;100.00
48652;BME280;34442;52.362;-1.302;2023-06-22T01:26:38;100516.78;;;19.42;100.00
48652;BME280;34442;52.362;-1.302;2023-06-22T01:29:08;100523.53;;;19.34;100.00
48652;BME280;34442;52.362;-1.302;2023-06-22T01:31:39;100519.63;;;19.25;100.00
48652;BME280;34442;52.362;-1.302;2023-06-22T01:34:06;100516.06;;;19.20;100.00
48652;BME280;34442;52.362;-1.302;2023-06-22T01:36:33;100522.59;;;19.19;100.00
48652;BME280;34442;52.362;-1.302;2023-06-22T01:39:00;100519.88;;;19.19;100.00
48652;BME280;34442;52.362;-1.302;2023-06-22T01:41:28;100525.03;;;19.20;100.00
48652;BME280;34442;52.362;-1.302;2023-06-22T01:43:55;100516.06;;;19.20;100.00
48652;BME280;34442;52.362;-1.302;2023-06-22T01:46:21;100517.69;;;19.21;100.00
48652;BME280;34442;52.362;-1.302;2023-06-22T01:48:47;100515.22;;;19.19;100.00
48652;BME280;34442;52.362;-1.302;2023-06-22T01:51:13;100517.66;;;19.16;100.00
48652;BME280;34442;52.362;-1.302;2023-06-22T01:53:39;100526.91;;;19.15;100.00
48652;BME280;34442;52.362;-1.302;2023-06-22T01:56:04;100517.34;;;19.12;100.00
48652;BME280;34442;52.362;-1.302;2023-06-22T01:58:31;100526.88;;;19.09;100.00
48652;BME280;34442;52.362;-1.302;2023-06-22T02:03:38;100517.63;;;19.11;100.00
48652;BME280;34442;52.362;-1.302;2023-06-22T02:06:10;100517.31;;;19.07;100.00
48652;BME280;34442;52.362;-1.302;2023-06-22T02:08:53;100518.44;;;19.11;100.00
48652;BME280;34442;52.362;-1.302;2023-06-22T02:11:20;100524.97;;;19.10;100.00
48652;BME280;34442;52.362;-1.302;2023-06-22T02:13:47;100529.03;;;19.07;100.00
48652;BME280;34442;52.362;-1.302;2023-06-22T02:16:14;100527.34;;;19.01;100.00
48652;BME280;34442;52.362;-1.302;2023-06-22T02:18:51;100528.94;;;18.97;100.00
48652;BME280;34442;52.362;-1.302;2023-06-22T02:21:20;100530.78;;;18.92;100.00
48652;BME280;34442;52.362;-1.302;2023-06-22T02:23:46;100529.47;;;18.94;100.00
48652;BME280;34442;52.362;-1.302;2023-06-22T02:26:12;100531.91;;;18.96;100.00
48652;BME280;34442;52.362;-1.302;2023-06-22T02:28:38;100528.09;;;18.97;100.00
48652;BME280;34442;52.362;-1.302;2023-06-22T02:31:03;100526.22;;;18.97;100.00
48652;BME280;34442;52.362;-1.302;2023-06-22T02:33:28;100525.16;;;18.98;100.00
48652;BME280;34442;52.362;-1.302;2023-06-22T02:35:54;100528.94;;;18.97;100.00
48652;BME280;34442;52.362;-1.302;2023-06-22T02:38:19;100528.09;;;18.97;100.00
48652;BME280;34442;52.362;-1.302;2023-06-22T02:40:45;100521.84;;;18.96;100.00
48652;BME280;34442;52.362;-1.302;2023-06-22T02:43:11;100513.66;;;18.96;100.00
48652;BME280;34442;52.362;-1.302;2023-06-22T02:45:37;100527.25;;;18.91;100.00
48652;BME280;34442;52.362;-1.302;2023-06-22T02:48:02;100518.25;;;18.91;100.00
48652;BME280;34442;52.362;-1.302;2023-06-22T02:50:28;100522.06;;;18.90;100.00
48652;BME280;34442;52.362;-1.302;2023-06-22T02:52:53;100513.84;;;18.84;100.00
48652;BME280;34442;52.362;-1.302;2023-06-22T02:55:18;100516.59;;;18.84;100.00
48652;BME280;34442;52.362;-1.302;2023-06-22T02:57:44;100517.13;;;18.87;100.00
48652;BME280;34442;52.362;-1.302;2023-06-22T03:00:12;100514.97;;;18.89;100.00
48652;BME280;34442;52.362;-1.302;2023-06-22T03:02:48;100521.25;;;18.89;100.00
48652;BME280;34442;52.362;-1.302;2023-06-22T03:05:14;100519.31;;;18.84;100.00
48652;BME280;34442;52.362;-1.302;2023-06-22T03:07:44;100517.63;;;18.83;100.00
48652;BME280;34442;52.362;-1.302;2023-06-22T03:10:10;100508.09;;;18.81;100.00
48652;BME280;34442;52.362;-1.302;2023-06-22T03:12:37;100512.72;;;18.80;100.00
48652;BME280;34442;52.362;-1.302;2023-06-22T03:15:06;100514.88;;;18.78;100.00
48652;BME280;34442;52.362;-1.302;2023-06-22T03:17:33;100512.41;;;18.77;100.00
48652;BME280;34442;52.362;-1.302;2023-06-22T03:19:58;100511.84;;;18.75;100.00
48652;BME280;34442;52.362;-1.302;2023-06-22T03:22:24;100514.00;;;18.73;100.00
48652;BME280;34442;52.362;-1.302;2023-06-22T03:24:49;100518.88;;;18.71;100.00
48652;BME280;34442;52.362;-1.302;2023-06-22T03:27:14;100512.84;;;18.69;100.00
48652;BME280;34442;52.362;-1.302;2023-06-22T03:29:40;100516.63;;;18.68;100.00
48652;BME280;34442;52.362;-1.302;2023-06-22T03:32:06;100521.84;;;18.69;100.00
48652;BME280;34442;52.362;-1.302;2023-06-22T03:34:32;100525.34;;;18.65;100.00
48652;BME280;34442;52.362;-1.302;2023-06-22T03:36:59;100527.78;;;18.66;100.00
48652;BME280;34442;52.362;-1.302;2023-06-22T03:39:25;100525.16;;;18.71;100.00
48652;BME280;34442;52.362;-1.302;2023-06-22T03:41:50;100526.81;;;18.72;100.00
48652;BME280;34442;52.362;-1.302;2023-06-22T03:44:16;100525.72;;;18.73;100.00
48652;BME280;34442;52.362;-1.302;2023-06-22T03:46:41;100518.88;;;18.71;100.00
48652;BME280;34442;52.362;-1.302;2023-06-22T03:49:06;100518.28;;;18.69;100.00
48652;BME280;34442;52.362;-1.302;2023-06-22T03:51:32;100526.22;;;18.70;100.00
48652;BME280;34442;52.362;-1.302;2023-06-22T03:53:58;100521.84;;;18.69;100.00
48652;BME280;34442;52.362;-1.302;2023-06-22T03:56:23;100509.88;;;18.70;100.00
48652;BME280;34442;52.362;-1.302;2023-06-22T03:58:49;100505.25;;;18.71;100.00
48652;BME280;34442;52.362;-1.302;2023-06-22T04:01:14;100517.47;;;18.68;100.00
48652;BME280;34442;52.362;-1.302;2023-06-22T04:03:42;100515.34;;;18.70;100.00
48652;BME280;34442;52.362;-1.302;2023-06-22T04:06:07;100512.28;;;18.67;100.00
48652;BME280;34442;52.362;-1.302;2023-06-22T04:08:33;100513.84;;;18.63;100.00
48652;BME280;34442;52.362;-1.302;2023-06-22T04:10:58;100514.00;;;18.51;100.00
48652;BME280;34442;52.362;-1.302;2023-06-22T04:13:24;100518.91;;;18.49;100.00
48652;BME280;34442;52.362;-1.302;2023-06-22T04:15:49;100511.22;;;18.46;100.00
48652;BME280;34442;52.362;-1.302;2023-06-22T04:18:14;100508.88;;;18.54;100.00
48652;BME280;34442;52.362;-1.302;2023-06-22T04:20:40;100512.19;;;18.56;100.00
48652;BME280;34442;52.362;-1.302;2023-06-22T04:23:05;100513.53;;;18.59;100.00
48652;BME280;34442;52.362;-1.302;2023-06-22T04:25:31;100517.09;;;18.59;100.00
48652;BME280;34442;52.362;-1.302;2023-06-22T04:27:56;100515.72;;;18.57;100.00
48652;BME280;34442;52.362;-1.302;2023-06-22T04:30:21;100524.19;;;18.60;100.00
48652;BME280;34442;52.362;-1.302;2023-06-22T04:32:47;100520.06;;;18.58;100.00
48652;BME280;34442;52.362;-1.302;2023-06-22T04:35:23;100519.53;;;18.56;100.00
48652;BME280;34442;52.362;-1.302;2023-06-22T04:37:49;100513.22;;;18.55;100.00
48652;BME280;34442;52.362;-1.302;2023-06-22T04:40:15;100519.81;;;18.59;100.00
48652;BME280;34442;52.362;-1.302;2023-06-22T04:42:41;100516.59;;;18.63;100.00
48652;BME280;34442;52.362;-1.302;2023-06-22T04:45:17;100520.38;;;18.62;100.00
48652;BME280;34442;52.362;-1.302;2023-06-22T04:47:42;100520.38;;;18.62;100.00
48652;BME280;34442;52.362;-1.302;2023-06-22T04:50:07;100527.75;;;18.61;100.00
48652;BME280;34442;52.362;-1.302;2023-06-22T04:52:33;100526.38;;;18.64;100.00
48652;BME280;34442;52.362;-1.302;2023-06-22T04:54:58;100530.66;;;18.76;100.00
48652;BME280;34442;52.362;-1.302;2023-06-22T04:57:25;100528.44;;;18.73;100.00
48652;BME280;34442;52.362;-1.302;2023-06-22T04:59:57;100525.66;;;18.68;100.00
48652;BME280;34442;52.362;-1.302;2023-06-22T05:02:22;100521.03;;;18.69;100.00
48652;BME280;34442;52.362;-1.302;2023-06-22T05:04:53;100523.50;;;18.70;100.00
48652;BME280;34442;52.362;-1.302;2023-06-22T05:07:22;100534.44;;;18.75;100.00
48652;BME280;34442;52.362;-1.302;2023-06-22T05:09:50;100527.94;;;18.76;100.00
48652;BME280;34442;52.362;-1.302;2023-06-22T05:12:16;100542.09;;;18.78;100.00
48652;BME280;34442;52.362;-1.302;2023-06-22T05:14:41;100535.34;;;18.81;100.00
48652;BME280;34442;52.362;-1.302;2023-06-22T05:17:06;100533.75;;;18.85;100.00
48652;BME280;34442;52.362;-1.302;2023-06-22T05:19:38;100540.56;;;18.88;100.00
48652;BME280;34442;52.362;-1.302;2023-06-22T05:22:04;100544.94;;;18.89;100.00
48652;BME280;34442;52.362;-1.302;2023-06-22T05:24:30;100538.97;;;18.92;100.00
48652;BME280;34442;52.362;-1.302;2023-06-22T05:26:55;100541.50;;;18.98;100.00
48652;BME280;34442;52.362;-1.302;2023-06-22T05:29:20;100530.94;;;19.07;100.00
48652;BME280;34442;52.362;-1.302;2023-06-22T05:31:47;100537.25;;;19.13;100.00
48652;BME280;34442;52.362;-1.302;2023-06-22T05:34:12;100545.69;;;19.11;100.00
48652;BME280;34442;52.362;-1.302;2023-06-22T05:36:38;100552.78;;;19.12;100.00
48652;BME280;34442;52.362;-1.302;2023-06-22T05:39:13;100547.84;;;19.09;100.00
48652;BME280;34442;52.362;-1.302;2023-06-22T05:41:39;100557.13;;;19.13;100.00
48652;BME280;34442;52.362;-1.302;2023-06-22T05:44:04;100552.28;;;19.15;100.00
48652;BME280;34442;52.362;-1.302;2023-06-22T05:46:30;100550.66;;;19.19;100.00
48652;BME280;34442;52.362;-1.302;2023-06-22T05:48:55;100556.16;;;19.24;100.00
48652;BME280;34442;52.362;-1.302;2023-06-22T05:51:21;100551.50;;;19.20;100.00
48652;BME280;34442;52.362;-1.302;2023-06-22T05:53:46;100552.09;;;19.27;100.00
48652;BME280;34442;52.362;-1.302;2023-06-22T05:56:15;100551.31;;;19.31;100.00
48652;BME280;34442;52.362;-1.302;2023-06-22T05:58:40;100548.94;;;19.40;100.00
48652;BME280;34442;52.362;-1.302;2023-06-22T06:01:06;100544.88;;;19.43;100.00
48652;BME280;34442;52.362;-1.302;2023-06-22T06:03:31;100541.31;;;19.42;100.00
48652;BME280;34442;52.362;-1.302;2023-06-22T06:05:56;100547.06;;;19.46;100.00
48652;BME280;34442;52.362;-1.302;2023-06-22T06:08:22;100551.69;;;19.45;100.00
48652;BME280;34442;52.362;-1.302;2023-06-22T06:10:47;100543.84;;;19.54;100.00
48652;BME280;34442;52.362;-1.302;2023-06-22T06:13:13;100544.69;;;19.54;100.00
48652;BME280;34442;52.362;-1.302;2023-06-22T06:15:38;100555.19;;;19.73;100.00
48652;BME280;34442;52.362;-1.302;2023-06-22T06:18:04;100552.47;;;19.73;100.00
48652;BME280;34442;52.362;-1.302;2023-06-22T06:20:31;100553.81;;;19.70;100.00
48652;BME280;34442;52.362;-1.302;2023-06-22T06:22:56;100566.09;;;19.73;100.00
48652;BME280;34442;52.362;-1.302;2023-06-22T06:25:22;100568.97;;;19.56;100.00
48652;BME280;34442;52.362;-1.302;2023-06-22T06:27:49;100566.31;;;19.02;100.00
48652;BME280;34442;52.362;-1.302;2023-06-22T06:30:17;100573.41;;;19.03;100.00
48652;BME280;34442;52.362;-1.302;2023-06-22T06:32:44;100572.59;;;19.02;100.00
48652;BME280;34442;52.362;-1.302;2023-06-22T06:35:12;100575.41;;;19.13;100.00
48652;BME280;34442;52.362;-1.302;2023-06-22T06:37:39;100572.69;;;19.13;100.00
48652;BME280;34442;52.362;-1.302;2023-06-22T06:40:06;100571.03;;;19.12;100.00
48652;BME280;34442;52.362;-1.302;2023-06-22T06:42:35;100574.88;;;19.16;100.00
48652;BME280;34442;52.362;-1.302;2023-06-22T06:45:04;100567.81;;;19.15;100.00
48652;BME280;34442;52.362;-1.302;2023-06-22T06:47:29;100574.69;;;19.22;100.00
48652;BME280;34442;52.362;-1.302;2023-06-22T06:49:54;100571.19;;;19.27;100.00
48652;BME280;34442;52.362;-1.302;2023-06-22T06:52:20;100570.13;;;19.33;100.00
48652;BME280;34442;52.362;-1.302;2023-06-22T06:54:46;100571.00;;;19.39;100.00
48652;BME280;34442;52.362;-1.302;2023-06-22T06:57:11;100566.13;;;19.46;100.00
48652;BME280;34442;52.362;-1.302;2023-06-22T06:59:38;100564.03;;;19.58;100.00
48652;BME280;34442;52.362;-1.302;2023-06-22T07:02:04;100561.97;;;19.65;100.00
48652;BME280;34442;52.362;-1.302;2023-06-22T07:04:30;100561.19;;;19.75;100.00
48652;BME280;34442;52.362;-1.302;2023-06-22T07:06:55;100562.59;;;19.77;100.00
48652;BME280;34442;52.362;-1.302;2023-06-22T07:09:21;100569.44;;;19.80;100.00
48652;BME280;34442;52.362;-1.302;2023-06-22T07:11:46;100564.28;;;19.83;100.00
48652;BME280;34442;52.362;-1.302;2023-06-22T07:14:11;100565.09;;;19.84;100.00
48652;BME280;34442;52.362;-1.302;2023-06-22T07:16:37;100569.50;;;19.95;100.00
48652;BME280;34442;52.362;-1.302;2023-06-22T07:19:02;100564.94;;;20.11;100.00
48652;BME280;34442;52.362;-1.302;2023-06-22T07:21:28;100564.44;;;20.14;100.00
48652;BME280;34442;52.362;-1.302;2023-06-22T07:23:53;100561.16;;;20.12;100.00
48652;BME280;34442;52.362;-1.302;2023-06-22T07:26:20;100554.09;;;20.16;100.00
48652;BME280;34442;52.362;-1.302;2023-06-22T07:28:45;100553.88;;;20.38;100.00
48652;BME280;34442;52.362;-1.302;2023-06-22T07:31:11;100558.84;;;20.46;100.00
48652;BME280;34442;52.362;-1.302;2023-06-22T07:33:36;100558.88;;;20.56;100.00
48652;BME280;34442;52.362;-1.302;2023-06-22T07:36:01;100565.16;;;20.52;100.00
48652;BME280;34442;52.362;-1.302;2023-06-22T07:38:32;100565.69;;;20.49;100.00
48652;BME280;34442;52.362;-1.302;2023-06-22T07:40:58;100561.06;;;20.49;100.00
48652;BME280;34442;52.362;-1.302;2023-06-22T07:43:23;100556.44;;;20.55;100.00
48652;BME280;34442;52.362;-1.302;2023-06-22T07:45:49;100562.47;;;20.72;100.00
48652;BME280;34442;52.362;-1.302;2023-06-22T07:48:20;100561.13;;;20.80;100.00
48652;BME280;34442;52.362;-1.302;2023-06-22T07:50:46;100558.16;;;20.92;100.00
48652;BME280;34442;52.362;-1.302;2023-06-22T07:53:12;100558.44;;;21.00;100.00
48652;BME280;34442;52.362;-1.302;2023-06-22T07:55:37;100549.69;;;20.98;100.00
48652;BME280;34442;52.362;-1.302;2023-06-22T07:58:02;100547.22;;;20.92;100.00
48652;BME280;34442;52.362;-1.302;2023-06-22T08:00:28;100548.56;;;20.89;100.00
48652;BME280;34442;52.362;-1.302;2023-06-22T08:02:53;100550.25;;;21.00;100.00
48652;BME280;34442;52.362;-1.302;2023-06-22T08:05:19;100549.44;;;21.15;100.00
48652;BME280;34442;52.362;-1.302;2023-06-22T08:07:44;100543.44;;;21.28;100.00
48652;BME280;34442;52.362;-1.302;2023-06-22T08:10:11;100553.81;;;21.47;100.00
48652;BME280;34442;52.362;-1.302;2023-06-22T08:12:36;100551.38;;;21.45;100.00
48652;BME280;34442;52.362;-1.302;2023-06-22T08:15:02;100558.47;;;21.62;100.00
48652;BME280;34442;52.362;-1.302;2023-06-22T08:17:28;100556.28;;;21.74;100.00
48652;BME280;34442;52.362;-1.302;2023-06-22T08:19:53;100560.38;;;21.71;100.00
48652;BME280;34442;52.362;-1.302;2023-06-22T08:22:18;100559.03;;;21.69;100.00
48652;BME280;34442;52.362;-1.302;2023-06-22T08:24:44;100560.94;;;21.53;100.00
48652;BME280;34442;52.362;-1.302;2023-06-22T08:27:10;100563.38;;;21.60;100.00
48652;BME280;34442;52.362;-1.302;2023-06-22T08:29:40;100555.47;;;21.58;100.00
48652;BME280;34442;52.362;-1.302;2023-06-22T08:32:08;100553.22;;;21.86;100.00
48652;BME280;34442;52.362;-1.302;2023-06-22T08:34:34;100560.84;;;22.04;100.00
48652;BME280;34442;52.362;-1.302;2023-06-22T08:37:00;100549.88;;;22.19;100.00
48652;BME280;34442;52.362;-1.302;2023-06-22T08:39:25;100555.63;;;22.23;100.00
48652;BME280;34442;52.362;-1.302;2023-06-22T08:41:51;100546.59;;;22.22;100.00
48652;BME280;34442;52.362;-1.302;2023-06-22T08:44:18;100546.59;;;22.22;100.00
48652;BME280;34442;52.362;-1.302;2023-06-22T08:46:44;100549.25;;;22.33;100.00
48652;BME280;34442;52.362;-1.302;2023-06-22T08:49:09;100547.59;;;22.37;100.00
48652;BME280;34442;52.362;-1.302;2023-06-22T08:51:35;100544.84;;;22.42;100.00
48652;BME280;34442;52.362;-1.302;2023-06-22T08:54:06;100547.50;;;22.57;100.00
48652;BME280;34442;52.362;-1.302;2023-06-22T08:56:32;100545.16;;;22.30;100.00
48652;BME280;34442;52.362;-1.302;2023-06-22T08:58:57;100546.03;;;22.10;100.00
48652;BME280;34442;52.362;-1.302;2023-06-22T09:01:23;100546.69;;;21.82;100.00
48652;BME280;34442;52.362;-1.302;2023-06-22T09:03:48;100546.13;;;21.74;100.00
48652;BME280;34442;52.362;-1.302;2023-06-22T09:06:20;100554.34;;;21.64;100.00
48652;BME280;34442;52.362;-1.302;2023-06-22T09:08:46;100547.75;;;21.80;100.00
48652;BME280;34442;52.362;-1.302;2023-06-22T09:11:12;100553.50;;;21.84;100.00
48652;BME280;34442;52.362;-1.302;2023-06-22T09:13:37;100554.06;;;21.76;100.00
48652;BME280;34442;52.362;-1.302;2023-06-22T09:16:03;100552.97;;;21.72;100.00
48652;BME280;34442;52.362;-1.302;2023-06-22T09:18:29;100554.91;;;21.71;100.00
48652;BME280;34442;52.362;-1.302;2023-06-22T09:20:54;100554.63;;;21.63;100.00
48652;BME280;34442;52.362;-1.302;2023-06-22T09:23:20;100561.75;;;21.74;100.00
48652;BME280;34442;52.362;-1.302;2023-06-22T09:25:45;100567.66;;;22.27;100.00
48652;BME280;34442;52.362;-1.302;2023-06-22T09:28:13;100572.38;;;22.66;100.00
48652;BME280;34442;52.362;-1.302;2023-06-22T09:30:38;100571.97;;;22.88;100.00
48652;BME280;34442;52.362;-1.302;2023-06-22T09:33:06;100570.72;;;22.70;100.00
48652;BME280;34442;52.362;-1.302;2023-06-22T09:35:31;100569.78;;;22.40;100.00
48652;BME280;34442;52.362;-1.302;2023-06-22T09:37:57;100570.09;;;22.28;100.00
48652;BME280;34442;52.362;-1.302;2023-06-22T09:40:22;100581.09;;;22.23;100.00
48652;BME280;34442;52.362;-1.302;2023-06-22T09:42:47;100575.63;;;22.13;100.00
48652;BME280;34442;52.362;-1.302;2023-06-22T09:45:13;100581.09;;;22.03;100.00
48652;BME280;34442;52.362;-1.302;2023-06-22T09:47:38;100578.59;;;22.22;100.00
48652;BME280;34442;52.362;-1.302;2023-06-22T09:50:05;100580.81;;;22.20;100.00
48652;BME280;34442;52.362;-1.302;2023-06-22T09:52:30;100588.75;;;22.16;100.00
48652;BME280;34442;52.362;-1.302;2023-06-22T09:54:56;100589.59;;;22.07;100.00
48652;BME280;34442;52.362;-1.302;2023-06-22T09:57:21;100578.63;;;22.17;100.00
48652;BME280;34442;52.362;-1.302;2023-06-22T09:59:46;100587.63;;;22.33;100.00
48652;BME280;34442;52.362;-1.302;2023-06-22T10:02:12;100585.38;;;22.45;100.00
48652;BME280;34442;52.362;-1.302;2023-06-22T10:04:38;100588.41;;;22.98;100.00
48652;BME280;34442;52.362;-1.302;2023-06-22T10:07:05;100580.75;;;23.34;100.00
48652;BME280;34442;52.362;-1.302;2023-06-22T10:09:31;100591.81;;;23.53;100.00
48652;BME280;34442;52.362;-1.302;2023-06-22T10:11:56;100581.47;;;23.79;100.00
48652;BME280;34442;52.362;-1.302;2023-06-22T10:14:21;100572.69;;;23.77;100.00
48652;BME280;34442;52.362;-1.302;2023-06-22T10:16:48;100576.84;;;23.98;100.00
48652;BME280;34442;52.362;-1.302;2023-06-22T10:19:13;100576.69;;;24.14;100.00
48652;BME280;34442;52.362;-1.302;2023-06-22T10:21:39;100580.25;;;24.14;100.00
48652;BME280;34442;52.362;-1.302;2023-06-22T10:24:04;100576.69;;;24.14;100.00
48652;BME280;34442;52.362;-1.302;2023-06-22T10:26:34;100580.50;;;24.18;100.00
48652;BME280;34442;52.362;-1.302;2023-06-22T10:28:59;100577.41;;;24.24;100.00
48652;BME280;34442;52.362;-1.302;2023-06-22T10:31:25;100580.22;;;24.43;100.00
48652;BME280;34442;52.362;-1.302;2023-06-22T10:33:50;100585.81;;;24.57;100.00
48652;BME280;34442;52.362;-1.302;2023-06-22T10:36:16;100586.06;;;24.61;100.00
48652;BME280;34442;52.362;-1.302;2023-06-22T10:38:41;100577.56;;;24.57;100.00
48652;BME280;34442;52.362;-1.302;2023-06-22T10:41:06;100578.84;;;24.65;100.00
48652;BME280;34442;52.362;-1.302;2023-06-22T10:43:32;100578.19;;;24.73;100.00
48652;BME280;34442;52.362;-1.302;2023-06-22T10:45:57;100575.19;;;24.50;100.00
48652;BME280;34442;52.362;-1.302;2023-06-22T10:48:23;100571.25;;;24.75;100.00
48652;BME280;34442;52.362;-1.302;2023-06-22T10:50:48;100568.31;;;25.42;98.75
48652;BME280;34442;52.362;-1.302;2023-06-22T10:53:13;100568.06;;;25.71;96.44
48652;BME280;34442;52.362;-1.302;2023-06-22T10:55:39;100560.91;;;25.89;95.13
48652;BME280;34442;52.362;-1.302;2023-06-22T10:58:04;100566.34;;;25.62;95.63
48652;BME280;34442;52.362;-1.302;2023-06-22T11:00:30;100570.72;;;25.30;96.28
48652;BME280;34442;52.362;-1.302;2023-06-22T11:02:55;100573.13;;;24.99;96.64
48652;BME280;34442;52.362;-1.302;2023-06-22T11:05:21;100571.09;;;25.05;95.67
48652;BME280;34442;52.362;-1.302;2023-06-22T11:07:47;100574.66;;;25.05;94.67
48652;BME280;34442;52.362;-1.302;2023-06-22T11:10:14;100571.91;;;25.10;94.38
48652;BME280;34442;52.362;-1.302;2023-06-22T11:12:40;100572.72;;;25.11;93.67
48652;BME280;34442;52.362;-1.302;2023-06-22T11:15:05;100567.31;;;25.00;94.09
48652;BME280;34442;52.362;-1.302;2023-06-22T11:17:31;100570.28;;;24.85;94.63
48652;BME280;34442;52.362;-1.302;2023-06-22T11:19:56;100562.56;;;24.68;95.12
48652;BME280;34442;52.362;-1.302;2023-06-22T11:22:22;100561.38;;;24.74;94.27
48652;BME280;34442;52.362;-1.302;2023-06-22T11:24:47;100560.63;;;24.50;94.93
48652;BME280;34442;52.362;-1.302;2023-06-22T11:27:13;100578.91;;;24.60;92.85
48652;BME280;34442;52.362;-1.302;2023-06-22T11:29:38;100573.91;;;24.43;93.28
48652;BME280;34442;52.362;-1.302;2023-06-22T11:32:06;100570.78;;;24.25;92.95
48652;BME280;34442;52.362;-1.302;2023-06-22T11:34:33;100566.03;;;24.31;91.58
48652;BME280;34442;52.362;-1.302;2023-06-22T11:36:58;100565.53;;;24.29;90.95
48652;BME280;34442;52.362;-1.302;2023-06-22T11:39:23;100564.91;;;24.56;88.47
48652;BME280;34442;52.362;-1.302;2023-06-22T11:41:49;100560.50;;;25.17;85.34
48652;BME280;34442;52.362;-1.302;2023-06-22T11:44:14;100557.94;;;25.39;84.52
48652;BME280;34442;52.362;-1.302;2023-06-22T11:46:40;100560.81;;;25.62;82.66
48652;BME280;34442;52.362;-1.302;2023-06-22T11:49:05;100555.16;;;25.72;82.15
48652;BME280;34442;52.362;-1.302;2023-06-22T11:51:30;100547.63;;;25.78;82.08
48652;BME280;34442;52.362;-1.302;2023-06-22T11:53:57;100557.94;;;25.99;80.96
48652;BME280;34442;52.362;-1.302;2023-06-22T11:56:23;100543.78;;;25.92;80.89
48652;BME280;34442;52.362;-1.302;2023-06-22T11:58:48;100550.59;;;25.81;81.63
48652;BME280;34442;52.362;-1.302;2023-06-22T12:01:13;100549.88;;;25.43;83.12
48652;BME280;34442;52.362;-1.302;2023-06-22T12:03:40;100548.16;;;25.47;83.52
48652;BME280;34442;52.362;-1.302;2023-06-22T12:06:05;100544.16;;;25.86;82.10
48652;BME280;34442;52.362;-1.302;2023-06-22T12:08:31;100542.84;;;26.11;80.69
48652;BME280;34442;52.362;-1.302;2023-06-22T12:10:56;100546.31;;;26.03;81.80
48652;BME280;34442;52.362;-1.302;2023-06-22T12:13:22;100540.03;;;25.69;83.31
48652;BME280;34442;52.362;-1.302;2023-06-22T12:15:47;100549.13;;;25.37;84.23
48652;BME280;34442;52.362;-1.302;2023-06-22T12:18:12;100539.50;;;25.21;85.29
48652;BME280;34442;52.362;-1.302;2023-06-22T12:20:40;100546.06;;;25.06;85.99
48652;BME280;34442;52.362;-1.302;2023-06-22T12:23:05;100545.38;;;24.95;86.10
48652;BME280;34442;52.362;-1.302;2023-06-22T12:25:31;100545.38;;;24.95;86.19
48652;BME280;34442;52.362;-1.302;2023-06-22T12:27:56;100535.72;;;24.98;86.22
48652;BME280;34442;52.362;-1.302;2023-06-22T12:30:22;100544.88;;;24.74;86.21
48652;BME280;34442;52.362;-1.302;2023-06-22T12:32:47;100548.75;;;24.73;86.09